Tangail, Bangladesh
Current Conditions -  °F | °C
As of 6:20 PM on Thursday 30 Oct 2014 (Local Time) from VGHS Reporting Station
Haze Haze  
Wind Chill: 27°   Ceiling: Unl
Heat Index: 28°   Visibility: 2.5mi
Dew Point: 18°   Wind: 0mph
Humidity: 58%   Direction: NA
Pressure: 29.83"   Gusts: NA
Location:  24.25°N, 89.92°E
Report Text: VGHS 301220Z 00000KT 4000 HZ NSC 27/18 Q1010 NOSIG
Loading
Personal Weather Stations






























Interactive Weather Map
Tropical Storm Tracking
New forecast layout! Learn more

10-Day Weather Forecast

Advertisements
Track Severe Weather on mobile